createdAt,value
2023-11-12T00:00:25.762Z,4.43
2023-11-12T00:05:19.310Z,3.60
2023-11-12T00:10:14.397Z,3.78
2023-11-12T00:15:07.185Z,3.60
2023-11-12T00:19:59.331Z,3.63
2023-11-12T00:24:51.112Z,4.00
2023-11-12T00:29:42.918Z,3.55
2023-11-12T00:34:36.186Z,3.78
2023-11-12T00:39:28.252Z,2.80
2023-11-12T00:44:20.233Z,3.17
2023-11-12T00:49:12.025Z,5.32
2023-11-12T00:54:03.996Z,4.65
2023-11-12T00:58:55.821Z,3.50
2023-11-12T01:03:47.755Z,3.85
2023-11-12T01:08:40.858Z,3.45
2023-11-12T01:13:32.730Z,3.03
2023-11-12T01:18:26.826Z,3.22
2023-11-12T01:23:18.837Z,3.17
2023-11-12T01:28:12.204Z,2.72
2023-11-12T01:33:05.232Z,3.25
2023-11-12T01:37:57.033Z,2.90
2023-11-12T01:42:48.984Z,2.70
2023-11-12T01:47:42.231Z,2.90
2023-11-12T01:52:35.589Z,2.95
2023-11-12T01:57:28.104Z,2.95
2023-11-12T02:02:22.229Z,3.08
2023-11-12T02:07:14.582Z,2.42
2023-11-12T02:12:08.031Z,3.08
2023-11-12T02:17:00.519Z,2.92
2023-11-12T02:21:52.362Z,3.05
2023-11-12T02:26:45.203Z,3.08
2023-11-12T02:31:37.078Z,2.75
2023-11-12T02:36:28.957Z,3.15
2023-11-12T02:41:21.926Z,2.58
2023-11-12T02:46:17.445Z,2.72
2023-11-12T02:51:09.341Z,1.95
2023-11-12T02:56:01.179Z,2.20
2023-11-12T03:00:54.560Z,2.97
2023-11-12T03:05:46.444Z,2.10
2023-11-12T03:10:43.323Z,2.17
2023-11-12T03:15:35.210Z,2.13
2023-11-12T03:20:27.093Z,2.13
2023-11-12T03:25:18.980Z,2.28
2023-11-12T03:30:11.288Z,1.75
2023-11-12T03:35:03.260Z,2.05
2023-11-12T03:39:55.091Z,2.03
2023-11-12T03:44:48.836Z,2.08
2023-11-12T03:49:41.697Z,2.20
2023-11-12T03:54:33.974Z,2.13
2023-11-12T03:59:25.746Z,2.13
2023-11-12T04:04:17.698Z,2.33
2023-11-12T04:09:10.306Z,1.90
2023-11-12T04:14:03.868Z,2.10
2023-11-12T04:18:56.204Z,1.90
2023-11-12T04:23:49.453Z,2.10
2023-11-12T04:28:41.273Z,2.15
2023-11-12T04:33:33.134Z,1.90
2023-11-12T04:38:25.009Z,2.15
2023-11-12T04:43:17.630Z,2.22
2023-11-12T04:48:10.119Z,2.25
2023-11-12T04:53:02.095Z,2.33
2023-11-12T04:57:54.294Z,1.83
2023-11-12T05:02:46.429Z,2.20
2023-11-12T05:07:38.964Z,2.53
2023-11-12T05:12:30.796Z,2.10
2023-11-12T05:17:23.380Z,2.47
2023-11-12T05:22:15.189Z,2.35
2023-11-12T05:27:07.047Z,2.10
2023-11-12T05:31:59.152Z,2.13
2023-11-12T05:36:51.055Z,2.60
2023-11-12T05:41:42.950Z,2.10
2023-11-12T05:46:34.803Z,2.20
2023-11-12T05:51:26.666Z,2.58
2023-11-12T05:56:19.628Z,2.20
2023-11-12T06:01:13.406Z,2.17
2023-11-12T06:06:05.739Z,2.30
2023-11-12T06:10:57.950Z,2.40
2023-11-12T06:15:49.802Z,2.35
2023-11-12T06:20:41.637Z,1.70
2023-11-12T06:25:33.881Z,1.95
2023-11-12T06:30:26.089Z,2.05
2023-11-12T06:35:17.930Z,2.33
2023-11-12T06:40:10.088Z,2.55
2023-11-12T06:45:02.042Z,3.47
2023-11-12T06:49:56.823Z,2.38
2023-11-12T06:54:49.372Z,3.67
2023-11-12T06:59:42.104Z,4.40
2023-11-12T07:04:34.013Z,3.13
2023-11-12T07:09:26.850Z,2.92
2023-11-12T07:14:18.633Z,3.08
2023-11-12T07:19:10.614Z,3.00
2023-11-12T07:24:02.632Z,3.42
2023-11-12T07:28:55.522Z,4.82
2023-11-12T07:33:47.735Z,3.33
2023-11-12T07:38:40.318Z,3.75
2023-11-12T07:43:32.172Z,3.90
2023-11-12T07:48:24.378Z,5.32
2023-11-12T07:53:16.207Z,5.70
2023-11-12T07:58:08.003Z,5.80
2023-11-12T08:03:00.040Z,6.88
2023-11-12T08:07:52.172Z,8.27
2023-11-12T08:12:44.579Z,9.52
2023-11-12T08:17:36.514Z,11.80
2023-11-12T08:22:28.385Z,10.02
2023-11-12T08:27:20.215Z,12.32
2023-11-12T08:32:12.035Z,13.32
2023-11-12T08:37:04.593Z,14.73
2023-11-12T08:41:56.450Z,14.30
2023-11-12T08:46:50.073Z,18.05
2023-11-12T08:51:43.251Z,18.90
2023-11-12T08:56:35.092Z,19.10
2023-11-12T09:01:27.011Z,18.10
2023-11-12T09:06:19.474Z,18.77
2023-11-12T09:11:15.055Z,19.33
2023-11-12T09:16:10.207Z,21.80
2023-11-12T09:21:02.130Z,20.35
2023-11-12T09:25:54.141Z,24.05
2023-11-12T09:30:54.460Z,26.98
2023-11-12T09:35:51.418Z,27.63
2023-11-12T09:40:44.221Z,27.08
2023-11-12T09:45:37.545Z,28.25
2023-11-12T09:50:29.537Z,26.98
2023-11-12T09:55:22.074Z,26.65
2023-11-12T10:00:18.476Z,26.52
2023-11-12T10:05:13.052Z,27.70
2023-11-12T10:10:32.404Z,27.95
2023-11-12T10:15:29.795Z,29.70
2023-11-12T10:20:26.220Z,31.40
2023-11-12T10:25:43.720Z,30.25
2023-11-12T10:30:39.526Z,30.63
2023-11-12T10:35:32.140Z,30.40
2023-11-12T10:40:25.613Z,28.48
2023-11-12T10:45:17.871Z,28.88
2023-11-12T10:50:10.248Z,28.67
2023-11-12T10:55:06.586Z,28.45
2023-11-12T11:00:01.725Z,31.42
2023-11-12T11:04:53.579Z,29.38
2023-11-12T11:09:45.759Z,36.55
2023-11-12T11:14:37.665Z,34.22
2023-11-12T11:19:44.711Z,32.97
2023-11-12T11:24:46.899Z,33.35
2023-11-12T11:30:15.186Z,31.90
2023-11-12T11:35:17.929Z,33.00
2023-11-12T11:40:29.387Z,30.92
2023-11-12T11:45:21.231Z,28.80
2023-11-12T11:50:13.000Z,27.60
2023-11-12T11:55:16.435Z,29.25
2023-11-12T12:00:14.992Z,30.83
2023-11-12T12:05:07.180Z,26.65
2023-11-12T12:10:01.557Z,25.15
2023-11-12T12:14:54.072Z,26.75
2023-11-12T12:19:52.867Z,26.60
2023-11-12T12:24:44.718Z,27.02
2023-11-12T12:29:38.693Z,26.95
2023-11-12T12:34:40.456Z,27.13
2023-11-12T12:39:55.816Z,26.80
2023-11-12T12:44:51.304Z,24.67
2023-11-12T12:49:43.644Z,26.55
2023-11-12T12:54:35.645Z,24.88
2023-11-12T12:59:36.502Z,24.95
2023-11-12T13:04:28.987Z,24.10
2023-11-12T13:09:27.772Z,26.45
2023-11-12T13:14:21.480Z,27.50
2023-11-12T13:19:16.327Z,25.95
2023-11-12T13:24:11.050Z,26.85
2023-11-12T13:29:05.374Z,25.92
2023-11-12T13:33:57.259Z,26.08
2023-11-12T13:38:49.143Z,26.88
2023-11-12T13:43:40.934Z,27.50
2023-11-12T13:48:33.185Z,25.25
2023-11-12T13:53:25.616Z,27.23
2023-11-12T13:58:17.422Z,24.55
2023-11-12T14:03:09.519Z,25.48
2023-11-12T14:08:02.203Z,26.33
2023-11-12T14:12:54.407Z,26.05
2023-11-12T14:17:49.302Z,22.50
2023-11-12T14:22:41.624Z,25.85
2023-11-12T14:27:34.388Z,22.33
2023-11-12T14:32:26.223Z,23.45
2023-11-12T14:37:18.003Z,22.08
2023-11-12T14:42:10.500Z,23.27
2023-11-12T14:47:02.346Z,20.08
2023-11-12T14:51:54.157Z,24.52
2023-11-12T14:56:46.419Z,24.27
2023-11-12T15:01:44.084Z,26.08
2023-11-12T15:06:37.390Z,24.65
2023-11-12T15:11:31.769Z,22.60
2023-11-12T15:16:27.221Z,25.27
2023-11-12T15:21:19.010Z,24.85
2023-11-12T15:26:17.534Z,23.38
2023-11-12T15:36:04.166Z,23.85
2023-11-12T15:40:55.974Z,25.77
2023-11-12T15:45:49.746Z,28.02
2023-11-12T15:50:44.713Z,29.27
2023-11-12T15:55:36.500Z,28.98
2023-11-12T16:00:28.409Z,25.23
2023-11-12T16:05:20.721Z,24.63
2023-11-12T16:10:15.670Z,26.63
2023-11-12T16:15:13.723Z,23.75
2023-11-12T16:24:59.564Z,23.63
2023-11-12T16:29:51.481Z,25.17
2023-11-12T16:34:43.670Z,23.55
2023-11-12T16:39:46.360Z,25.70
2023-11-12T16:44:38.274Z,25.25
2023-11-12T16:49:30.795Z,25.70
2023-11-12T16:54:23.338Z,26.65
2023-11-12T16:59:15.154Z,25.67
2023-11-12T17:04:07.299Z,25.35
2023-11-12T17:08:59.116Z,26.88
2023-11-12T17:13:51.181Z,27.17
2023-11-12T17:18:42.954Z,27.52
2023-11-12T17:23:34.748Z,28.95
2023-11-12T17:28:26.969Z,27.65
2023-11-12T17:33:18.754Z,26.40
2023-11-12T17:38:10.562Z,25.98
2023-11-12T17:43:02.481Z,26.20
2023-11-12T17:47:55.200Z,25.83
2023-11-12T17:52:47.015Z,27.83
2023-11-12T17:57:39.741Z,28.85
2023-11-12T18:02:31.626Z,28.20
2023-11-12T18:07:23.462Z,26.63
2023-11-12T18:12:15.492Z,26.38
2023-11-12T18:17:07.410Z,27.80
2023-11-12T18:21:59.371Z,26.50
2023-11-12T18:26:51.587Z,26.40
2023-11-12T18:31:43.559Z,26.45
2023-11-12T18:36:35.451Z,28.63
2023-11-12T18:41:27.624Z,26.45
2023-11-12T18:46:20.942Z,25.25
2023-11-12T18:51:13.105Z,25.38
2023-11-12T18:56:08.488Z,23.65
2023-11-12T19:01:00.924Z,25.83
2023-11-12T19:05:52.755Z,26.77
2023-11-12T19:10:45.109Z,25.65
2023-11-12T19:15:40.392Z,25.65
2023-11-12T19:20:33.820Z,25.02
2023-11-12T19:25:25.747Z,25.27
2023-11-12T19:30:17.860Z,24.58
2023-11-12T19:35:09.812Z,24.17
2023-11-12T19:40:02.192Z,25.95
2023-11-12T19:44:54.333Z,27.85
2023-11-12T19:49:46.397Z,28.25
2023-11-12T19:54:42.195Z,26.40
2023-11-12T19:59:34.018Z,29.42
2023-11-12T20:04:26.511Z,28.05
2023-11-12T20:09:21.811Z,26.75
2023-11-12T20:14:13.584Z,27.65
2023-11-12T20:19:09.512Z,29.35
2023-11-12T20:24:01.360Z,26.98
2023-11-12T20:28:53.194Z,30.48
2023-11-12T20:33:45.041Z,25.65
2023-11-12T20:38:39.276Z,26.67
2023-11-12T20:43:31.404Z,25.40
2023-11-12T20:48:23.592Z,27.33
2023-11-12T20:53:15.672Z,26.77
2023-11-12T20:58:08.266Z,24.58
2023-11-12T21:03:03.005Z,24.27
2023-11-12T21:07:55.000Z,26.13
2023-11-12T21:12:48.034Z,26.27
2023-11-12T21:17:40.018Z,25.50
2023-11-12T21:22:32.030Z,23.55
2023-11-12T21:27:23.830Z,24.35
2023-11-12T21:32:16.095Z,28.05
2023-11-12T21:37:07.925Z,23.58
2023-11-12T21:42:01.365Z,25.98
2023-11-12T21:46:53.223Z,26.77
2023-11-12T21:51:46.230Z,25.05
2023-11-12T21:56:38.058Z,24.15
2023-11-12T22:01:29.871Z,23.60
2023-11-12T22:06:23.616Z,20.98
2023-11-12T22:11:15.472Z,20.50
2023-11-12T22:16:07.619Z,23.85
2023-11-12T22:21:00.680Z,25.35
2023-11-12T22:25:52.692Z,22.98
2023-11-12T22:30:44.701Z,24.30
2023-11-12T22:35:36.963Z,22.88
2023-11-12T22:40:28.824Z,19.92
2023-11-12T22:45:21.448Z,19.17
2023-11-12T22:50:18.970Z,17.60
2023-11-12T22:55:11.132Z,19.83
2023-11-12T23:00:06.527Z,18.48
2023-11-12T23:04:58.520Z,22.35
2023-11-12T23:09:50.347Z,18.65
2023-11-12T23:14:42.116Z,19.10
2023-11-12T23:19:33.964Z,17.80
2023-11-12T23:24:25.721Z,17.40
2023-11-12T23:29:17.486Z,17.77
2023-11-12T23:34:09.757Z,17.08
2023-11-12T23:39:01.590Z,16.63
2023-11-12T23:43:53.453Z,16.73
2023-11-12T23:48:45.244Z,17.95
2023-11-12T23:53:37.035Z,16.40
2023-11-12T23:58:28.765Z,14.88
